Terminal Aerodrome Forecast
Issued by NWS Memphis, TN

Home | Current Version | Previous Version | Text Only | Print | Product List | Glossary On
Versions: 1 2 3 4 5 6 7 8 9 10 11 12 13 14
000
FTUS44 KMEG 302300
TAFMKL
TAF
KMKL 302331Z 3100/3124 03003KT P6SM BKN080
     FM310600 00000KT 5SM BR OVC080
     FM311400 23003KT P6SM FEW050 OVC120=

USA.gov is the U.S. government's official web portal to all federal, state and local government web resources and services.